createdAt,value
2023-01-07T00:06:08.501Z,99050.84
2023-01-07T00:16:34.053Z,99048.02
2023-01-07T00:26:58.276Z,99048.71
2023-01-07T00:37:40.960Z,99054.10
2023-01-07T00:48:05.711Z,99058.43
2023-01-07T00:58:30.711Z,99064.02
2023-01-07T01:08:55.069Z,99079.17
2023-01-07T01:19:19.260Z,99079.71
2023-01-07T01:29:43.695Z,99085.72
2023-01-07T01:40:10.166Z,99089.28
2023-01-07T01:50:38.332Z,99088.36
2023-01-07T02:01:02.714Z,99093.30
2023-01-07T02:11:40.136Z,99090.58
2023-01-07T02:22:12.442Z,99087.14
2023-01-07T02:32:56.362Z,99075.50
2023-01-07T02:43:30.101Z,99090.87
2023-01-07T02:53:54.506Z,99090.87
2023-01-07T03:04:36.818Z,99093.39
2023-01-07T03:15:08.889Z,99091.46
2023-01-07T03:25:37.743Z,99088.73
2023-01-07T03:36:05.686Z,99086.75
2023-01-07T03:46:29.808Z,99081.94
2023-01-07T03:56:54.017Z,99086.42
2023-01-07T04:07:18.891Z,99094.08
2023-01-07T04:17:43.956Z,99092.56
2023-01-07T04:28:08.562Z,99090.02
2023-01-07T04:38:33.016Z,99091.61
2023-01-07T04:48:57.888Z,99093.33
2023-01-07T04:59:22.348Z,99100.42
2023-01-07T05:09:46.714Z,99101.23
2023-01-07T05:20:13.100Z,99104.77
2023-01-07T05:30:38.171Z,99112.20
2023-01-07T05:41:02.465Z,99113.49
2023-01-07T05:51:26.703Z,99113.09
2023-01-07T06:01:50.904Z,99106.82
2023-01-07T06:12:15.115Z,99102.04
2023-01-07T06:22:39.293Z,99106.42
2023-01-07T06:33:04.856Z,99119.89
2023-01-07T06:43:29.283Z,99124.92
2023-01-07T06:53:53.730Z,99129.39
2023-01-07T07:04:17.979Z,99122.65
2023-01-07T07:14:42.246Z,99123.07
2023-01-07T07:25:07.871Z,99129.89
2023-01-07T07:35:32.553Z,99139.70
2023-01-07T07:45:58.169Z,99144.52
2023-01-07T07:56:22.569Z,99139.23
2023-01-07T08:06:46.822Z,99133.41
2023-01-07T08:17:11.088Z,99135.48
2023-01-07T08:27:35.322Z,99128.16
2023-01-07T08:38:03.657Z,99120.86
2023-01-07T08:48:27.948Z,99121.14
2023-01-07T08:58:52.329Z,99120.55
2023-01-07T09:09:17.031Z,99127.36
2023-01-07T09:19:41.309Z,99130.00
2023-01-07T09:30:08.928Z,99125.75
2023-01-07T09:40:37.445Z,99121.83
2023-01-07T09:51:04.979Z,99123.77
2023-01-07T10:01:36.734Z,99110.66
2023-01-07T10:12:12.689Z,99099.02
2023-01-07T10:22:39.986Z,99088.10
2023-01-07T10:33:20.094Z,99076.59
2023-01-07T10:43:59.235Z,99070.23
2023-01-07T10:54:48.626Z,99060.05
2023-01-07T11:05:14.884Z,99054.14
2023-01-07T11:15:45.240Z,99050.16
2023-01-07T11:26:31.259Z,99038.75
2023-01-07T11:36:55.515Z,99025.60
2023-01-07T11:47:20.431Z,99013.81
2023-01-07T11:57:56.785Z,99004.10
2023-01-07T12:08:26.625Z,98993.86
2023-01-07T12:19:04.140Z,98982.95
2023-01-07T12:29:40.524Z,98973.77
2023-01-07T12:40:18.635Z,98962.33
2023-01-07T12:50:46.677Z,98944.81
2023-01-07T13:01:20.201Z,98941.34
2023-01-07T13:12:07.922Z,98927.80
2023-01-07T13:22:55.805Z,98919.13
2023-01-07T13:33:26.882Z,98919.99
2023-01-07T13:44:17.618Z,98923.11
2023-01-07T13:54:59.119Z,98923.41
2023-01-07T14:05:27.898Z,98931.17
2023-01-07T14:16:01.997Z,98927.80
2023-01-07T14:26:36.416Z,98917.01
2023-01-07T14:37:15.737Z,98913.20
2023-01-07T14:47:55.114Z,98913.53
2023-01-07T14:58:33.990Z,98905.73
2023-01-07T15:09:23.478Z,98901.59
2023-01-07T15:19:47.770Z,98883.22
2023-01-07T15:30:22.243Z,98878.46
2023-01-07T15:40:47.529Z,98876.09
2023-01-07T15:51:17.265Z,98875.08
2023-01-07T16:01:48.380Z,98873.17
2023-01-07T16:12:26.374Z,98863.80
2023-01-07T16:22:51.880Z,98864.59
2023-01-07T16:33:19.505Z,98868.87
2023-01-07T16:43:44.902Z,98866.17
2023-01-07T16:54:40.883Z,98856.26
2023-01-07T17:05:17.594Z,98844.74
2023-01-07T17:15:43.643Z,98836.81
2023-01-07T17:26:17.194Z,98832.33
2023-01-07T17:36:41.585Z,98834.08
2023-01-07T17:47:09.584Z,98830.95
2023-01-07T17:57:33.825Z,98829.03
2023-01-07T18:07:58.003Z,98827.92
2023-01-07T18:18:22.445Z,98828.61
2023-01-07T18:28:47.807Z,98828.33
2023-01-07T18:39:19.195Z,98836.23
2023-01-07T18:49:43.940Z,98839.09
2023-01-07T19:00:10.426Z,98836.25
2023-01-07T19:10:34.980Z,98834.05
2023-01-07T19:21:02.807Z,98826.38
2023-01-07T19:31:27.223Z,98823.00
2023-01-07T19:41:51.507Z,98819.90
2023-01-07T19:52:16.874Z,98821.26
2023-01-07T20:02:41.148Z,98811.21
2023-01-07T20:13:06.176Z,98803.64
2023-01-07T20:23:30.387Z,98795.05
2023-01-07T20:33:55.309Z,98785.98
2023-01-07T20:44:21.102Z,98782.34
2023-01-07T20:54:47.253Z,98771.16
2023-01-07T21:05:11.613Z,98767.30
2023-01-07T21:15:37.933Z,98757.35
2023-01-07T21:26:02.174Z,98751.57
2023-01-07T21:36:28.050Z,98746.14
2023-01-07T21:46:52.417Z,98741.76
2023-01-07T21:57:16.583Z,98731.88
2023-01-07T22:07:40.914Z,98736.31
2023-01-07T22:18:05.581Z,98731.61
2023-01-07T22:28:32.389Z,98719.39
2023-01-07T22:38:59.682Z,98708.86
2023-01-07T22:49:27.153Z,98699.16
2023-01-07T22:59:51.344Z,98680.36
2023-01-07T23:10:15.570Z,98668.02
2023-01-07T23:20:41.520Z,98654.54
2023-01-07T23:31:06.071Z,98641.13
2023-01-07T23:41:31.234Z,98643.13
2023-01-07T23:51:55.578Z,98633.70
